createdAt,value
2023-05-01T00:02:08.010Z,100563.94
2023-05-01T00:04:36.313Z,100582.09
2023-05-01T00:07:04.167Z,100549.13
2023-05-01T00:09:32.395Z,100579.16
2023-05-01T00:12:00.403Z,100593.53
2023-05-01T00:14:29.213Z,100596.28
2023-05-01T00:16:56.926Z,100586.75
2023-05-01T00:19:24.993Z,100587.38
2023-05-01T00:21:53.192Z,100562.31
2023-05-01T00:24:20.955Z,100589.59
2023-05-01T00:26:49.876Z,100586.06
2023-05-01T00:29:18.716Z,100540.03
2023-05-01T00:31:48.515Z,100573.63
2023-05-01T00:34:16.975Z,100561.81
2023-05-01T00:36:44.650Z,100566.47
2023-05-01T00:39:12.421Z,100575.00
2023-05-01T00:41:40.078Z,100531.25
2023-05-01T00:44:07.884Z,100580.22
2023-05-01T00:46:35.985Z,100573.63
2023-05-01T00:49:04.253Z,100579.13
2023-05-01T00:51:32.113Z,100576.00
2023-05-01T00:54:00.558Z,100573.44
2023-05-01T00:56:31.540Z,100537.28
2023-05-01T00:59:00.132Z,100537.09
2023-05-01T01:01:29.053Z,100521.91
2023-05-01T01:03:56.913Z,100567.81
2023-05-01T01:06:31.810Z,100561.53
2023-05-01T01:09:14.779Z,100561.19
2023-05-01T01:11:59.812Z,100565.06
2023-05-01T01:14:43.339Z,100570.66
2023-05-01T01:17:44.904Z,100553.44
2023-05-01T01:20:44.415Z,100546.66
2023-05-01T01:23:47.404Z,100545.88
2023-05-01T01:26:15.141Z,100546.78
2023-05-01T01:29:16.955Z,100514.34
2023-05-01T01:32:01.599Z,100541.44
2023-05-01T01:34:50.607Z,100524.66
2023-05-01T01:37:33.148Z,100498.31
2023-05-01T01:40:07.011Z,100544.97
2023-05-01T01:42:43.367Z,100542.56
2023-05-01T01:45:26.136Z,100534.03
2023-05-01T01:47:56.557Z,100531.63
2023-05-01T01:50:27.541Z,100543.38
2023-05-01T01:52:58.798Z,100524.38
2023-05-01T01:55:30.607Z,100498.69
2023-05-01T01:58:01.230Z,100516.44
2023-05-01T02:00:30.034Z,100521.78
2023-05-01T02:03:01.209Z,100519.06
2023-05-01T02:05:30.863Z,100464.47
2023-05-01T02:07:59.986Z,100482.13
2023-05-01T02:10:29.288Z,100480.78
2023-05-01T02:13:00.154Z,100488.22
2023-05-01T02:15:30.595Z,100514.59
2023-05-01T02:18:01.652Z,100496.50
2023-05-01T02:20:29.841Z,100505.38
2023-05-01T02:22:58.932Z,100495.41
2023-05-01T02:25:30.475Z,100510.22
2023-05-01T02:28:02.179Z,100508.31
2023-05-01T02:30:29.844Z,100502.00
2023-05-01T02:32:58.040Z,100460.03
2023-05-01T02:35:25.883Z,100471.06
2023-05-01T02:37:53.889Z,100493.19
2023-05-01T02:40:22.123Z,100454.75
2023-05-01T02:42:52.191Z,100489.66
2023-05-01T02:45:25.446Z,100457.66
2023-05-01T02:48:00.113Z,100474.47
2023-05-01T02:50:28.642Z,100480.75
2023-05-01T02:52:57.093Z,100471.06
2023-05-01T02:55:48.926Z,100487.53
2023-05-01T02:58:18.695Z,100486.22
2023-05-01T03:00:50.078Z,100479.91
2023-05-01T03:03:19.008Z,100479.16
2023-05-01T03:05:48.120Z,100444.75
2023-05-01T03:08:16.098Z,100448.59
2023-05-01T03:10:44.496Z,100477.53
2023-05-01T03:13:12.580Z,100469.47
2023-05-01T03:15:40.438Z,100456.69
2023-05-01T03:18:08.415Z,100473.69
2023-05-01T03:20:36.143Z,100438.34
2023-05-01T03:23:04.983Z,100456.09
2023-05-01T03:25:33.701Z,100442.88
2023-05-01T03:28:02.395Z,100458.72
2023-05-01T03:30:30.069Z,100427.06
2023-05-01T03:32:58.032Z,100454.28
2023-05-01T03:35:31.152Z,100463.66
2023-05-01T03:37:59.317Z,100454.81
2023-05-01T03:40:46.013Z,100424.00
2023-05-01T03:43:32.333Z,100461.13
2023-05-01T03:46:04.008Z,100463.97
2023-05-01T03:48:32.344Z,100467.72
2023-05-01T03:51:00.213Z,100464.19
2023-05-01T03:53:30.930Z,100432.69
2023-05-01T03:55:59.258Z,100430.16
2023-05-01T03:58:28.710Z,100413.00
2023-05-01T04:01:00.509Z,100450.47
2023-05-01T04:03:31.260Z,100450.13
2023-05-01T04:05:59.589Z,100431.56
2023-05-01T04:08:27.575Z,100457.59
2023-05-01T04:10:55.398Z,100393.78
2023-05-01T04:13:23.138Z,100458.72
2023-05-01T04:15:51.360Z,100427.22
2023-05-01T04:18:19.255Z,100435.41
2023-05-01T04:20:47.144Z,100468.69
2023-05-01T04:23:16.142Z,100433.38
2023-05-01T04:25:44.603Z,100459.88
2023-05-01T04:28:16.761Z,100420.78
2023-05-01T04:30:44.462Z,100444.78
2023-05-01T04:33:12.355Z,100473.84
2023-05-01T04:35:41.761Z,100468.69
2023-05-01T04:38:12.972Z,100452.06
2023-05-01T04:40:42.342Z,100456.22
2023-05-01T04:43:12.158Z,100466.88
2023-05-01T04:45:40.629Z,100436.59
2023-05-01T04:48:08.583Z,100491.81
2023-05-01T04:50:37.814Z,100492.81
2023-05-01T04:53:05.433Z,100447.31
2023-05-01T04:55:36.072Z,100487.69
2023-05-01T04:58:08.259Z,100479.94
2023-05-01T05:00:37.398Z,100476.72
2023-05-01T05:03:08.906Z,100467.03
2023-05-01T05:05:37.221Z,100499.91
2023-05-01T05:08:07.531Z,100480.53
2023-05-01T05:10:37.044Z,100508.59
2023-05-01T05:13:28.360Z,100502.97
2023-05-01T05:16:05.655Z,100467.13
2023-05-01T05:18:33.526Z,100474.19
2023-05-01T05:21:05.531Z,100501.84
2023-05-01T05:23:33.557Z,100490.38
2023-05-01T05:26:01.885Z,100503.78
2023-05-01T05:28:33.432Z,100499.09
2023-05-01T05:31:03.267Z,100476.44
2023-05-01T05:33:31.073Z,100490.47
2023-05-01T05:36:00.086Z,100495.63
2023-05-01T05:38:33.441Z,100507.75
2023-05-01T05:41:02.166Z,100467.25
2023-05-01T05:43:32.547Z,100482.28
2023-05-01T05:46:02.454Z,100457.06
2023-05-01T05:48:33.311Z,100506.13
2023-05-01T05:51:01.495Z,100461.28
2023-05-01T05:53:29.494Z,100473.22
2023-05-01T05:55:57.459Z,100503.28
2023-05-01T05:58:25.858Z,100485.69
2023-05-01T06:00:55.781Z,100506.03
2023-05-01T06:03:24.011Z,100504.41
2023-05-01T06:05:57.553Z,100498.84
2023-05-01T06:08:25.445Z,100480.47
2023-05-01T06:10:53.436Z,100503.59
2023-05-01T06:13:21.988Z,100490.00
2023-05-01T06:15:50.765Z,100505.78
2023-05-01T06:18:18.656Z,100503.53
2023-05-01T06:20:47.518Z,100519.06
2023-05-01T06:23:15.736Z,100517.44
2023-05-01T06:26:03.834Z,100510.16
2023-05-01T06:28:31.781Z,100523.28
2023-05-01T06:30:59.664Z,100518.25
2023-05-01T06:33:34.666Z,100485.66
2023-05-01T06:36:12.341Z,100518.75
2023-05-01T06:38:41.612Z,100503.53
2023-05-01T06:41:11.028Z,100483.72
2023-05-01T06:43:39.044Z,100455.72
2023-05-01T06:46:07.005Z,100507.16
2023-05-01T06:48:34.809Z,100503.13
2023-05-01T06:51:02.593Z,100475.00
2023-05-01T06:53:30.478Z,100522.53
2023-05-01T06:55:59.022Z,100525.75
2023-05-01T06:58:27.606Z,100523.50
2023-05-01T07:00:55.477Z,100499.59
2023-05-01T07:03:27.726Z,100512.50
2023-05-01T07:05:56.222Z,100491.91
2023-05-01T07:08:24.521Z,100503.53
2023-05-01T07:10:52.219Z,100498.03
2023-05-01T07:13:20.157Z,100515.28
2023-05-01T07:15:49.018Z,100495.44
2023-05-01T07:18:17.458Z,100499.63
2023-05-01T07:20:45.842Z,100484.13
2023-05-01T07:23:13.518Z,100520.97
2023-05-01T07:25:45.349Z,100497.53
2023-05-01T07:28:13.423Z,100482.69
2023-05-01T07:30:41.310Z,100509.81
2023-05-01T07:33:08.999Z,100525.00
2023-05-01T07:35:36.855Z,100484.75
2023-05-01T07:38:05.141Z,100528.84
2023-05-01T07:40:35.250Z,100498.78
2023-05-01T07:43:03.126Z,100533.53
2023-05-01T07:45:31.358Z,100524.13
2023-05-01T07:47:59.947Z,100525.44
2023-05-01T07:50:27.778Z,100515.09
2023-05-01T07:52:56.118Z,100513.31
2023-05-01T07:55:24.972Z,100537.53
2023-05-01T07:57:52.686Z,100534.19
2023-05-01T08:00:20.715Z,100534.19
2023-05-01T08:02:49.349Z,100520.47
2023-05-01T08:05:17.215Z,100514.81
2023-05-01T08:07:45.624Z,100536.28
2023-05-01T08:10:13.484Z,100520.97
2023-05-01T08:12:41.340Z,100490.56
2023-05-01T08:15:09.463Z,100533.69
2023-05-01T08:17:37.428Z,100496.53
2023-05-01T08:20:05.779Z,100536.94
2023-05-01T08:22:33.917Z,100478.16
2023-05-01T08:25:01.687Z,100529.38
2023-05-01T08:27:29.385Z,100527.91
2023-05-01T08:29:57.215Z,100512.06
2023-05-01T08:32:28.206Z,100517.91
2023-05-01T08:34:56.049Z,100512.75
2023-05-01T08:37:23.908Z,100528.25
2023-05-01T08:39:51.862Z,100531.09
2023-05-01T08:42:20.296Z,100551.56
2023-05-01T08:44:49.512Z,100521.69
2023-05-01T08:47:18.506Z,100527.66
2023-05-01T08:49:47.424Z,100559.66
2023-05-01T08:52:15.790Z,100518.81
2023-05-01T08:54:45.081Z,100564.53
2023-05-01T08:57:13.614Z,100540.16
2023-05-01T08:59:41.478Z,100540.69
2023-05-01T09:02:10.573Z,100524.69
2023-05-01T09:04:40.756Z,100557.50
2023-05-01T09:07:09.996Z,100552.81
2023-05-01T09:09:37.905Z,100540.56
2023-05-01T09:12:26.063Z,100573.63
2023-05-01T09:14:56.282Z,100545.84
2023-05-01T09:17:24.809Z,100580.56
2023-05-01T09:19:53.629Z,100578.28
2023-05-01T09:22:21.726Z,100583.16
2023-05-01T09:24:49.789Z,100587.03
2023-05-01T09:27:17.576Z,100591.66
2023-05-01T09:29:47.753Z,100595.25
2023-05-01T09:32:24.958Z,100583.59
2023-05-01T09:34:55.016Z,100569.06
2023-05-01T09:37:31.602Z,100599.25
2023-05-01T09:40:07.020Z,100594.09
2023-05-01T09:42:37.505Z,100570.31
2023-05-01T09:45:12.185Z,100574.81
2023-05-01T09:47:40.912Z,100588.84
2023-05-01T09:50:09.194Z,100581.03
2023-05-01T09:52:37.354Z,100579.91
2023-05-01T09:55:16.432Z,100608.69
2023-05-01T09:57:46.602Z,100598.03
2023-05-01T10:00:16.284Z,100598.19
2023-05-01T10:02:46.821Z,100579.13
2023-05-01T10:05:15.768Z,100547.41
2023-05-01T10:07:58.954Z,100621.09
2023-05-01T10:10:26.951Z,100612.69
2023-05-01T10:12:55.260Z,100613.50
2023-05-01T10:15:26.518Z,100565.03
2023-05-01T10:17:55.723Z,100591.06
2023-05-01T10:20:26.534Z,100612.88
2023-05-01T10:22:54.562Z,100612.25
2023-05-01T10:25:25.239Z,100584.94
2023-05-01T10:27:53.817Z,100592.22
2023-05-01T10:30:22.411Z,100619.19
2023-05-01T10:32:50.236Z,100606.31
2023-05-01T10:35:34.726Z,100575.94
2023-05-01T10:38:06.685Z,100621.16
2023-05-01T10:40:43.750Z,100627.78
2023-05-01T10:43:17.662Z,100630.81
2023-05-01T10:45:48.007Z,100582.53
2023-05-01T10:48:40.927Z,100629.72
2023-05-01T10:51:17.277Z,100590.63
2023-05-01T10:53:47.087Z,100625.66
2023-05-01T10:56:30.350Z,100619.38
2023-05-01T10:59:07.577Z,100589.00
2023-05-01T11:01:41.370Z,100614.22
2023-05-01T11:04:27.393Z,100610.66
2023-05-01T11:07:11.413Z,100604.38
2023-05-01T11:09:57.734Z,100616.47
2023-05-01T11:12:48.626Z,100622.75
2023-05-01T11:15:26.560Z,100617.06
2023-05-01T11:17:54.811Z,100589.47
2023-05-01T11:20:25.598Z,100625.00
2023-05-01T11:22:58.048Z,100587.03
2023-05-01T11:25:33.221Z,100610.28
2023-05-01T11:28:02.999Z,100622.56
2023-05-01T11:30:37.992Z,100590.63
2023-05-01T11:33:10.140Z,100605.63
2023-05-01T11:35:39.476Z,100594.53
2023-05-01T11:38:18.761Z,100586.78
2023-05-01T11:40:55.688Z,100596.25
2023-05-01T11:43:23.801Z,100595.09
2023-05-01T11:45:55.004Z,100599.09
2023-05-01T11:48:23.037Z,100585.31
2023-05-01T11:50:51.283Z,100582.59
2023-05-01T11:53:19.312Z,100529.94
2023-05-01T11:55:47.384Z,100561.94
2023-05-01T11:58:15.138Z,100571.50
2023-05-01T12:00:43.999Z,100547.56
2023-05-01T12:03:14.574Z,100590.88
2023-05-01T12:05:45.489Z,100592.50
2023-05-01T12:08:21.317Z,100588.97
2023-05-01T12:10:56.532Z,100597.00
2023-05-01T12:13:25.383Z,100594.38
2023-05-01T12:15:55.341Z,100568.50
2023-05-01T12:18:23.490Z,100595.50
2023-05-01T12:20:53.857Z,100598.75
2023-05-01T12:23:36.321Z,100580.34
2023-05-01T12:26:22.446Z,100565.28
2023-05-01T12:29:10.581Z,100548.00
2023-05-01T12:31:47.680Z,100553.53
2023-05-01T12:34:15.694Z,100590.25
2023-05-01T12:36:53.462Z,100587.84
2023-05-01T12:39:23.637Z,100603.19
2023-05-01T12:41:51.823Z,100519.34
2023-05-01T12:44:27.187Z,100591.91
2023-05-01T12:47:02.154Z,100606.41
2023-05-01T12:49:32.768Z,100573.13
2023-05-01T12:52:01.641Z,100565.38
2023-05-01T12:54:33.273Z,100589.63
2023-05-01T12:57:18.173Z,100589.00
2023-05-01T13:00:03.167Z,100596.72
2023-05-01T13:02:33.123Z,100581.81
2023-05-01T13:05:11.901Z,100594.94
2023-05-01T13:07:48.862Z,100593.31
2023-05-01T13:10:29.876Z,100589.91
2023-05-01T13:12:58.557Z,100577.78
2023-05-01T13:15:26.518Z,100595.88
2023-05-01T13:17:54.372Z,100582.59
2023-05-01T13:20:32.028Z,100579.53
2023-05-01T13:22:59.819Z,100577.44
2023-05-01T13:25:27.821Z,100610.81
2023-05-01T13:27:55.647Z,100577.22
2023-05-01T13:30:34.435Z,100583.72
2023-05-01T13:33:04.053Z,100564.09
2023-05-01T13:35:39.925Z,100604.81
2023-05-01T13:38:12.800Z,100593.44
2023-05-01T13:40:41.580Z,100592.66
2023-05-01T13:43:17.227Z,100598.13
2023-05-01T13:45:47.499Z,100609.56
2023-05-01T13:48:17.665Z,100593.28
2023-05-01T13:50:45.584Z,100595.06
2023-05-01T13:53:14.805Z,100593.78
2023-05-01T13:55:43.902Z,100570.16
2023-05-01T13:58:11.727Z,100580.72
2023-05-01T14:00:40.214Z,100558.53
2023-05-01T14:03:10.873Z,100570.91
2023-05-01T14:05:40.288Z,100530.09
2023-05-01T14:08:08.903Z,100552.72
2023-05-01T14:10:36.768Z,100515.41
2023-05-01T14:13:05.566Z,100564.66
2023-05-01T14:15:37.139Z,100548.84
2023-05-01T14:18:06.938Z,100509.97
2023-05-01T14:20:34.673Z,100535.06
2023-05-01T14:23:02.645Z,100513.88
2023-05-01T14:25:34.142Z,100540.16
2023-05-01T14:28:08.084Z,100552.84
2023-05-01T14:30:38.380Z,100546.13
2023-05-01T14:33:15.585Z,100534.56
2023-05-01T14:35:51.123Z,100547.19
2023-05-01T14:38:20.304Z,100541.13
2023-05-01T14:40:48.504Z,100537.06
2023-05-01T14:43:22.296Z,100545.78
2023-05-01T14:45:50.315Z,100522.56
2023-05-01T14:48:23.235Z,100535.06
2023-05-01T14:50:51.984Z,100547.66
2023-05-01T14:53:19.896Z,100515.13
2023-05-01T14:55:51.281Z,100542.25
2023-05-01T14:58:19.985Z,100552.31
2023-05-01T15:00:47.641Z,100545.56
2023-05-01T15:03:15.642Z,100547.34
2023-05-01T15:05:44.643Z,100544.63
2023-05-01T15:08:12.468Z,100520.03
2023-05-01T15:10:40.421Z,100492.16
2023-05-01T15:13:09.284Z,100536.41
2023-05-01T15:15:37.018Z,100516.88
2023-05-01T15:18:04.842Z,100533.03
2023-05-01T15:20:33.448Z,100518.84
2023-05-01T15:23:01.227Z,100522.34
2023-05-01T15:25:29.088Z,100502.16
2023-05-01T15:27:57.411Z,100530.19
2023-05-01T15:30:25.356Z,100510.47
2023-05-01T15:32:55.853Z,100557.81
2023-05-01T15:35:24.012Z,100541.88
2023-05-01T15:37:52.093Z,100552.31
2023-05-01T15:40:20.476Z,100543.88
2023-05-01T15:42:48.328Z,100564.78
2023-05-01T15:45:16.161Z,100527.59
2023-05-01T15:47:44.159Z,100512.44
2023-05-01T15:50:12.310Z,100570.88
2023-05-01T15:52:40.398Z,100566.16
2023-05-01T15:55:08.698Z,100578.44
2023-05-01T15:57:36.475Z,100581.81
2023-05-01T16:00:04.935Z,100571.94
2023-05-01T16:02:33.783Z,100590.19
2023-05-01T16:05:01.741Z,100560.59
2023-05-01T16:07:29.988Z,100603.09
2023-05-01T16:09:58.548Z,100574.91
2023-05-01T16:12:29.810Z,100572.03
2023-05-01T16:14:57.734Z,100531.69
2023-05-01T16:17:25.699Z,100559.66
2023-05-01T16:19:55.352Z,100552.72
2023-05-01T16:22:23.238Z,100562.22
2023-05-01T16:24:51.096Z,100530.91
2023-05-01T16:27:19.159Z,100559.78
2023-05-01T16:29:47.022Z,100507.44
2023-05-01T16:32:17.024Z,100578.19
2023-05-01T16:34:45.261Z,100558.47
2023-05-01T16:37:15.736Z,100571.03
2023-05-01T16:39:43.722Z,100574.69
2023-05-01T16:42:15.128Z,100586.94
2023-05-01T16:44:42.730Z,100590.19
2023-05-01T16:47:12.663Z,100560.88
2023-05-01T16:49:42.406Z,100577.84
2023-05-01T16:52:14.232Z,100566.53
2023-05-01T16:54:42.161Z,100585.84
2023-05-01T16:57:10.286Z,100595.66
2023-05-01T16:59:38.295Z,100565.09
2023-05-01T17:02:07.088Z,100571.75
2023-05-01T17:04:35.108Z,100594.91
2023-05-01T17:07:03.073Z,100553.66
2023-05-01T17:09:31.463Z,100570.03
2023-05-01T17:12:00.942Z,100596.50
2023-05-01T17:14:30.577Z,100587.94
2023-05-01T17:17:01.444Z,100553.34
2023-05-01T17:19:30.473Z,100585.84
2023-05-01T17:21:58.614Z,100577.03
2023-05-01T17:24:27.240Z,100526.63
2023-05-01T17:26:55.721Z,100599.84
2023-05-01T17:29:24.192Z,100576.41
2023-05-01T17:31:52.066Z,100566.72
2023-05-01T17:34:19.937Z,100549.28
2023-05-01T17:36:47.816Z,100598.25
2023-05-01T17:39:16.098Z,100605.16
2023-05-01T17:41:43.919Z,100591.97
2023-05-01T17:44:11.707Z,100528.59
2023-05-01T17:46:40.460Z,100598.88
2023-05-01T17:49:11.044Z,100563.78
2023-05-01T17:51:38.769Z,100580.47
2023-05-01T17:54:06.631Z,100586.28
2023-05-01T17:56:34.430Z,100599.69
2023-05-01T17:59:02.178Z,100558.91
2023-05-01T18:01:30.792Z,100565.06
2023-05-01T18:03:58.753Z,100616.75
2023-05-01T18:06:26.583Z,100589.22
2023-05-01T18:08:54.449Z,100578.22
2023-05-01T18:11:22.142Z,100572.09
2023-05-01T18:13:49.868Z,100618.97
2023-05-01T18:16:18.986Z,100578.53
2023-05-01T18:18:48.452Z,100618.28
2023-05-01T18:21:17.074Z,100615.25
2023-05-01T18:23:46.472Z,100611.31
2023-05-01T18:26:16.812Z,100583.34
2023-05-01T18:28:44.633Z,100636.22
2023-05-01T18:31:13.781Z,100634.44
2023-05-01T18:33:41.523Z,100624.06
2023-05-01T18:36:10.864Z,100645.53
2023-05-01T18:38:38.817Z,100649.09
2023-05-01T18:41:07.856Z,100620.78
2023-05-01T18:43:36.091Z,100613.53
2023-05-01T18:46:03.868Z,100640.75
2023-05-01T18:48:31.624Z,100668.88
2023-05-01T18:51:08.507Z,100669.69
2023-05-01T18:53:37.669Z,100624.75
2023-05-01T18:56:06.681Z,100672.13
2023-05-01T18:58:37.776Z,100638.63
2023-05-01T19:01:06.819Z,100661.81
2023-05-01T19:03:35.206Z,100389.38
2023-05-01T19:06:04.736Z,100675.97
2023-05-01T19:08:33.088Z,100672.50
2023-05-01T19:11:02.943Z,100671.13
2023-05-01T19:13:34.750Z,100621.63
2023-05-01T19:16:07.889Z,100678.50
2023-05-01T19:18:38.582Z,100662.19
2023-05-01T19:21:07.764Z,100613.03
2023-05-01T19:23:38.034Z,100498.44
2023-05-01T19:26:06.827Z,100698.78
2023-05-01T19:28:37.560Z,100689.63
2023-05-01T19:31:07.997Z,100579.16
2023-05-01T19:33:36.921Z,100435.78
2023-05-01T19:36:06.055Z,100459.63
2023-05-01T19:38:34.303Z,100478.03
2023-05-01T19:41:02.430Z,100622.06
2023-05-01T19:43:30.704Z,100582.53
2023-05-01T19:46:00.150Z,100635.69
2023-05-01T19:48:28.754Z,100584.47
2023-05-01T19:50:56.634Z,100717.13
2023-05-01T19:53:24.752Z,100647.88
2023-05-01T19:55:52.433Z,100656.47
2023-05-01T19:58:20.520Z,100680.69
2023-05-01T20:00:48.488Z,100733.38
2023-05-01T20:03:16.869Z,100730.63
2023-05-01T20:05:44.684Z,100736.59
2023-05-01T20:08:13.018Z,100724.88
2023-05-01T20:10:40.837Z,100741.25
2023-05-01T20:13:10.780Z,100728.16
2023-05-01T20:15:40.210Z,100712.78
2023-05-01T20:18:08.269Z,100755.28
2023-05-01T20:20:36.362Z,100707.72
2023-05-01T20:23:12.054Z,100720.88
2023-05-01T20:25:39.978Z,100758.91
2023-05-01T20:28:09.714Z,100749.22
2023-05-01T20:30:40.401Z,100765.50
2023-05-01T20:33:08.405Z,100760.66
2023-05-01T20:35:36.317Z,100776.28
2023-05-01T20:38:06.902Z,100769.19
2023-05-01T20:40:37.061Z,100774.97
2023-05-01T20:43:04.809Z,100758.44
2023-05-01T20:45:32.935Z,100760.31
2023-05-01T20:48:02.049Z,100782.88
2023-05-01T20:50:29.997Z,100760.03
2023-05-01T20:52:57.788Z,100768.91
2023-05-01T20:55:26.690Z,100756.34
2023-05-01T20:57:54.511Z,100756.03
2023-05-01T21:00:22.266Z,100775.56
2023-05-01T21:02:52.015Z,100770.91
2023-05-01T21:05:19.991Z,100739.66
2023-05-01T21:07:48.232Z,100744.03
2023-05-01T21:10:16.767Z,100772.03
2023-05-01T21:12:44.762Z,100755.34
2023-05-01T21:15:12.608Z,100751.28
2023-05-01T21:17:41.197Z,100767.28
2023-05-01T21:20:19.231Z,100742.28
2023-05-01T21:22:48.852Z,100754.72
2023-05-01T21:25:27.023Z,100729.31
2023-05-01T21:27:55.798Z,100746.59
2023-05-01T21:30:33.170Z,100743.47
2023-05-01T21:33:02.669Z,100737.81
2023-05-01T21:35:31.490Z,100735.75
2023-05-01T21:38:00.139Z,100736.47
2023-05-01T21:40:28.372Z,100701.16
2023-05-01T21:42:56.632Z,100742.44
2023-05-01T21:45:24.798Z,100753.91
2023-05-01T21:47:52.967Z,100736.56
2023-05-01T21:50:21.603Z,100725.75
2023-05-01T21:52:50.198Z,100707.56
2023-05-01T21:55:19.582Z,100750.63
2023-05-01T21:57:47.635Z,100728.59
2023-05-01T22:00:15.982Z,100752.25
2023-05-01T22:02:45.814Z,100750.13
2023-05-01T22:05:15.125Z,100749.81
2023-05-01T22:07:45.208Z,100760.47
2023-05-01T22:10:18.045Z,100759.38
2023-05-01T22:12:49.593Z,100759.38
2023-05-01T22:15:17.789Z,100771.13
2023-05-01T22:17:45.702Z,100726.97
2023-05-01T22:20:13.587Z,100756.91
2023-05-01T22:22:43.248Z,100735.09
2023-05-01T22:25:12.359Z,100752.88
2023-05-01T22:27:40.840Z,100750.88
2023-05-01T22:30:08.949Z,100761.50
2023-05-01T22:32:36.818Z,100722.34
2023-05-01T22:35:04.932Z,100760.50
2023-05-01T22:37:32.934Z,100763.94
2023-05-01T22:40:00.906Z,100735.28
2023-05-01T22:42:28.996Z,100744.63
2023-05-01T22:44:56.816Z,100751.81
2023-05-01T22:47:24.593Z,100702.72
2023-05-01T22:49:52.345Z,100772.13
2023-05-01T22:52:20.000Z,100735.41
2023-05-01T22:54:47.635Z,100731.16
2023-05-01T22:57:15.649Z,100749.91
2023-05-01T22:59:44.114Z,100715.72
2023-05-01T23:02:16.928Z,100737.25
2023-05-01T23:04:44.628Z,100766.91
2023-05-01T23:07:15.898Z,100768.00
2023-05-01T23:09:43.551Z,100757.47
2023-05-01T23:12:19.157Z,100767.53
2023-05-01T23:14:47.230Z,100773.00
2023-05-01T23:17:15.795Z,100768.34
2023-05-01T23:19:43.827Z,100724.22
2023-05-01T23:22:13.202Z,100737.53
2023-05-01T23:24:49.430Z,100763.16
2023-05-01T23:27:19.367Z,100722.16
2023-05-01T23:29:58.756Z,100757.81
2023-05-01T23:32:29.402Z,100751.94
2023-05-01T23:35:13.246Z,100739.19
2023-05-01T23:37:41.232Z,100759.22
2023-05-01T23:40:09.634Z,100746.16
2023-05-01T23:42:38.461Z,100736.75
2023-05-01T23:45:08.042Z,100735.75
2023-05-01T23:47:37.290Z,100771.16
2023-05-01T23:50:06.164Z,100755.69
2023-05-01T23:52:34.284Z,100745.47
2023-05-01T23:55:02.168Z,100717.09
2023-05-01T23:57:29.885Z,100760.03
2023-05-01T23:59:57.878Z,100748.06
